sensor_id;sensor_type;location;lat;lon;timestamp;P1;durP1;ratioP1;P2;durP2;ratioP2
16033;SDS011;8121;51.418;6.998;2023-04-25T00:01:48;7.07;;;3.30;;
16033;SDS011;8121;51.418;6.998;2023-04-25T00:11:52;8.20;;;2.57;;
16033;SDS011;8121;51.418;6.998;2023-04-25T00:21:54;4.83;;;2.30;;
16033;SDS011;8121;51.418;6.998;2023-04-25T00:31:57;2.17;;;1.70;;
16033;SDS011;8121;51.418;6.998;2023-04-25T00:41:58;3.33;;;1.53;;
16033;SDS011;8121;51.418;6.998;2023-04-25T00:52:02;4.23;;;1.90;;
16033;SDS011;8121;51.418;6.998;2023-04-25T01:02:03;2.60;;;1.47;;
16033;SDS011;8121;51.418;6.998;2023-04-25T01:12:06;5.13;;;3.10;;
16033;SDS011;8121;51.418;6.998;2023-04-25T01:22:09;4.13;;;1.90;;
16033;SDS011;8121;51.418;6.998;2023-04-25T01:32:11;5.00;;;2.17;;
16033;SDS011;8121;51.418;6.998;2023-04-25T01:42:14;3.40;;;1.50;;
16033;SDS011;8121;51.418;6.998;2023-04-25T01:52:16;2.67;;;2.47;;
16033;SDS011;8121;51.418;6.998;2023-04-25T02:02:19;1.70;;;1.50;;
16033;SDS011;8121;51.418;6.998;2023-04-25T02:12:20;13.53;;;3.07;;
16033;SDS011;8121;51.418;6.998;2023-04-25T02:22:23;6.37;;;3.40;;
16033;SDS011;8121;51.418;6.998;2023-04-25T02:32:26;3.10;;;2.33;;
16033;SDS011;8121;51.418;6.998;2023-04-25T02:42:29;6.50;;;3.43;;
16033;SDS011;8121;51.418;6.998;2023-04-25T02:52:31;4.93;;;2.20;;
16033;SDS011;8121;51.418;6.998;2023-04-25T03:02:33;6.40;;;3.40;;
16033;SDS011;8121;51.418;6.998;2023-04-25T03:12:35;3.33;;;2.27;;
16033;SDS011;8121;51.418;6.998;2023-04-25T03:22:38;10.87;;;4.13;;
16033;SDS011;8121;51.418;6.998;2023-04-25T03:32:39;5.07;;;3.03;;
16033;SDS011;8121;51.418;6.998;2023-04-25T03:42:42;3.07;;;2.33;;
16033;SDS011;8121;51.418;6.998;2023-04-25T03:52:43;3.00;;;2.20;;
16033;SDS011;8121;51.418;6.998;2023-04-25T04:02:46;6.73;;;2.47;;
16033;SDS011;8121;51.418;6.998;2023-04-25T04:12:48;12.50;;;4.10;;
16033;SDS011;8121;51.418;6.998;2023-04-25T04:22:51;10.43;;;4.90;;
16033;SDS011;8121;51.418;6.998;2023-04-25T04:32:52;11.63;;;4.87;;
16033;SDS011;8121;51.418;6.998;2023-04-25T04:42:55;10.07;;;4.03;;
16033;SDS011;8121;51.418;6.998;2023-04-25T04:52:57;21.90;;;5.80;;
16033;SDS011;8121;51.418;6.998;2023-04-25T05:03:00;8.87;;;4.90;;
16033;SDS011;8121;51.418;6.998;2023-04-25T05:13:01;3.30;;;2.20;;
16033;SDS011;8121;51.418;6.998;2023-04-25T05:23:04;4.07;;;2.10;;
16033;SDS011;8121;51.418;6.998;2023-04-25T05:33:06;3.20;;;1.70;;
16033;SDS011;8121;51.418;6.998;2023-04-25T05:43:09;2.13;;;1.53;;
16033;SDS011;8121;51.418;6.998;2023-04-25T05:53:10;6.97;;;2.90;;
16033;SDS011;8121;51.418;6.998;2023-04-25T06:03:13;14.77;;;3.10;;
16033;SDS011;8121;51.418;6.998;2023-04-25T06:13:15;6.20;;;2.60;;
16033;SDS011;8121;51.418;6.998;2023-04-25T06:23:18;9.77;;;3.97;;
16033;SDS011;8121;51.418;6.998;2023-04-25T06:33:19;6.90;;;2.60;;
16033;SDS011;8121;51.418;6.998;2023-04-25T06:43:22;4.03;;;1.73;;
16033;SDS011;8121;51.418;6.998;2023-04-25T06:53:24;8.00;;;2.40;;
16033;SDS011;8121;51.418;6.998;2023-04-25T07:03:27;11.40;;;3.30;;
16033;SDS011;8121;51.418;6.998;2023-04-25T07:13:29;9.00;;;2.50;;
16033;SDS011;8121;51.418;6.998;2023-04-25T07:23:31;9.67;;;2.93;;
16033;SDS011;8121;51.418;6.998;2023-04-25T07:33:33;10.53;;;2.20;;
16033;SDS011;8121;51.418;6.998;2023-04-25T07:43:36;1.60;;;1.23;;
16033;SDS011;8121;51.418;6.998;2023-04-25T07:53:37;5.50;;;1.50;;
16033;SDS011;8121;51.418;6.998;2023-04-25T08:03:40;6.20;;;1.57;;
16033;SDS011;8121;51.418;6.998;2023-04-25T08:13:42;4.47;;;2.30;;
16033;SDS011;8121;51.418;6.998;2023-04-25T08:23:44;5.77;;;2.27;;
16033;SDS011;8121;51.418;6.998;2023-04-25T08:33:46;1.73;;;1.10;;
16033;SDS011;8121;51.418;6.998;2023-04-25T08:43:50;6.73;;;1.23;;
16033;SDS011;8121;51.418;6.998;2023-04-25T08:53:52;8.30;;;2.43;;
16033;SDS011;8121;51.418;6.998;2023-04-25T09:03:55;6.53;;;1.93;;
16033;SDS011;8121;51.418;6.998;2023-04-25T09:14:13;2.50;;;1.00;;
16033;SDS011;8121;51.418;6.998;2023-04-25T09:24:17;4.80;;;1.77;;
16033;SDS011;8121;51.418;6.998;2023-04-25T09:34:20;6.90;;;1.10;;
16033;SDS011;8121;51.418;6.998;2023-04-25T09:44:24;7.47;;;1.50;;
16033;SDS011;8121;51.418;6.998;2023-04-25T09:54:27;5.03;;;1.10;;
16033;SDS011;8121;51.418;6.998;2023-04-25T10:04:29;1.27;;;1.17;;
16033;SDS011;8121;51.418;6.998;2023-04-25T10:14:33;1.77;;;1.07;;
16033;SDS011;8121;51.418;6.998;2023-04-25T10:24:36;4.27;;;1.03;;
16033;SDS011;8121;51.418;6.998;2023-04-25T10:34:39;3.80;;;1.37;;
16033;SDS011;8121;51.418;6.998;2023-04-25T10:44:48;6.00;;;1.60;;
16033;SDS011;8121;51.418;6.998;2023-04-25T10:55:03;3.00;;;1.20;;
16033;SDS011;8121;51.418;6.998;2023-04-25T11:05:07;2.20;;;1.03;;
16033;SDS011;8121;51.418;6.998;2023-04-25T11:15:08;6.13;;;1.63;;
16033;SDS011;8121;51.418;6.998;2023-04-25T11:25:13;5.43;;;1.47;;
16033;SDS011;8121;51.418;6.998;2023-04-25T11:35:15;8.53;;;1.77;;
16033;SDS011;8121;51.418;6.998;2023-04-25T11:45:18;3.30;;;1.23;;
16033;SDS011;8121;51.418;6.998;2023-04-25T11:55:19;3.13;;;1.37;;
16033;SDS011;8121;51.418;6.998;2023-04-25T12:05:25;1.00;;;0.97;;
16033;SDS011;8121;51.418;6.998;2023-04-25T12:15:27;7.97;;;1.50;;
16033;SDS011;8121;51.418;6.998;2023-04-25T12:25:37;5.83;;;1.40;;
16033;SDS011;8121;51.418;6.998;2023-04-25T12:35:39;2.53;;;0.80;;
16033;SDS011;8121;51.418;6.998;2023-04-25T12:45:42;0.73;;;0.63;;
16033;SDS011;8121;51.418;6.998;2023-04-25T12:55:43;3.13;;;1.03;;
16033;SDS011;8121;51.418;6.998;2023-04-25T13:05:48;2.13;;;1.60;;
16033;SDS011;8121;51.418;6.998;2023-04-25T13:15:50;5.20;;;1.50;;
16033;SDS011;8121;51.418;6.998;2023-04-25T13:25:53;1.67;;;1.10;;
16033;SDS011;8121;51.418;6.998;2023-04-25T13:35:55;5.37;;;1.53;;
16033;SDS011;8121;51.418;6.998;2023-04-25T13:45:58;1.67;;;1.20;;
16033;SDS011;8121;51.418;6.998;2023-04-25T13:56:00;0.90;;;0.80;;
16033;SDS011;8121;51.418;6.998;2023-04-25T14:06:03;0.80;;;0.60;;
16033;SDS011;8121;51.418;6.998;2023-04-25T14:16:05;5.10;;;1.23;;
16033;SDS011;8121;51.418;6.998;2023-04-25T14:26:08;1.93;;;1.10;;
16033;SDS011;8121;51.418;6.998;2023-04-25T14:36:12;2.50;;;0.93;;
16033;SDS011;8121;51.418;6.998;2023-04-25T14:46:15;2.70;;;1.47;;
16033;SDS011;8121;51.418;6.998;2023-04-25T14:56:19;7.53;;;1.10;;
16033;SDS011;8121;51.418;6.998;2023-04-25T15:06:22;7.40;;;1.13;;
16033;SDS011;8121;51.418;6.998;2023-04-25T15:16:26;1.70;;;0.93;;
16033;SDS011;8121;51.418;6.998;2023-04-25T15:26:29;4.43;;;1.20;;
16033;SDS011;8121;51.418;6.998;2023-04-25T15:36:30;1.73;;;0.83;;
16033;SDS011;8121;51.418;6.998;2023-04-25T15:46:34;1.20;;;1.10;;
16033;SDS011;8121;51.418;6.998;2023-04-25T15:56:36;1.00;;;0.90;;
16033;SDS011;8121;51.418;6.998;2023-04-25T16:06:39;4.33;;;0.80;;
16033;SDS011;8121;51.418;6.998;2023-04-25T16:16:41;2.20;;;1.00;;
16033;SDS011;8121;51.418;6.998;2023-04-25T16:26:46;0.70;;;0.70;;
16033;SDS011;8121;51.418;6.998;2023-04-25T16:36:48;1.23;;;0.90;;
16033;SDS011;8121;51.418;6.998;2023-04-25T16:46:51;1.53;;;0.90;;
16033;SDS011;8121;51.418;6.998;2023-04-25T16:56:52;5.73;;;1.10;;
16033;SDS011;8121;51.418;6.998;2023-04-25T17:06:55;2.07;;;1.03;;
16033;SDS011;8121;51.418;6.998;2023-04-25T17:16:57;1.00;;;0.90;;
16033;SDS011;8121;51.418;6.998;2023-04-25T17:27:00;0.93;;;0.70;;
16033;SDS011;8121;51.418;6.998;2023-04-25T17:37:02;3.43;;;1.20;;
16033;SDS011;8121;51.418;6.998;2023-04-25T17:47:05;2.00;;;1.30;;
16033;SDS011;8121;51.418;6.998;2023-04-25T17:57:06;1.70;;;1.00;;
16033;SDS011;8121;51.418;6.998;2023-04-25T18:07:09;4.87;;;1.20;;
16033;SDS011;8121;51.418;6.998;2023-04-25T18:17:11;7.57;;;1.23;;
16033;SDS011;8121;51.418;6.998;2023-04-25T18:27:15;3.40;;;1.07;;
16033;SDS011;8121;51.418;6.998;2023-04-25T18:37:16;2.50;;;1.30;;
16033;SDS011;8121;51.418;6.998;2023-04-25T18:47:20;4.27;;;1.00;;
16033;SDS011;8121;51.418;6.998;2023-04-25T18:57:21;1.30;;;1.10;;
16033;SDS011;8121;51.418;6.998;2023-04-25T19:07:24;2.73;;;1.47;;
16033;SDS011;8121;51.418;6.998;2023-04-25T19:17:27;2.40;;;1.17;;
16033;SDS011;8121;51.418;6.998;2023-04-25T19:27:30;3.60;;;1.60;;
16033;SDS011;8121;51.418;6.998;2023-04-25T19:37:32;2.17;;;1.37;;
16033;SDS011;8121;51.418;6.998;2023-04-25T19:47:36;1.57;;;1.47;;
16033;SDS011;8121;51.418;6.998;2023-04-25T19:57:37;3.87;;;1.80;;
16033;SDS011;8121;51.418;6.998;2023-04-25T20:07:41;3.73;;;1.53;;
16033;SDS011;8121;51.418;6.998;2023-04-25T20:17:43;7.90;;;1.70;;
16033;SDS011;8121;51.418;6.998;2023-04-25T20:27:46;5.80;;;1.10;;
16033;SDS011;8121;51.418;6.998;2023-04-25T20:37:47;5.03;;;1.30;;
16033;SDS011;8121;51.418;6.998;2023-04-25T20:47:51;3.23;;;1.47;;
16033;SDS011;8121;51.418;6.998;2023-04-25T20:57:52;5.13;;;0.93;;
16033;SDS011;8121;51.418;6.998;2023-04-25T21:07:56;1.50;;;1.40;;
16033;SDS011;8121;51.418;6.998;2023-04-25T21:17:58;5.93;;;1.40;;
16033;SDS011;8121;51.418;6.998;2023-04-25T21:28:01;12.83;;;2.40;;
16033;SDS011;8121;51.418;6.998;2023-04-25T21:38:02;2.37;;;1.00;;
16033;SDS011;8121;51.418;6.998;2023-04-25T21:48:05;1.13;;;1.00;;
16033;SDS011;8121;51.418;6.998;2023-04-25T21:58:07;3.43;;;1.73;;
16033;SDS011;8121;51.418;6.998;2023-04-25T22:08:10;1.30;;;1.13;;
16033;SDS011;8121;51.418;6.998;2023-04-25T22:18:12;2.77;;;1.07;;
16033;SDS011;8121;51.418;6.998;2023-04-25T22:28:16;1.30;;;1.10;;
16033;SDS011;8121;51.418;6.998;2023-04-25T22:38:18;2.43;;;1.53;;
16033;SDS011;8121;51.418;6.998;2023-04-25T22:48:21;1.30;;;0.80;;
16033;SDS011;8121;51.418;6.998;2023-04-25T22:58:22;2.93;;;1.03;;
16033;SDS011;8121;51.418;6.998;2023-04-25T23:08:26;4.20;;;1.43;;
16033;SDS011;8121;51.418;6.998;2023-04-25T23:18:27;2.60;;;1.23;;
16033;SDS011;8121;51.418;6.998;2023-04-25T23:28:30;1.60;;;1.13;;
16033;SDS011;8121;51.418;6.998;2023-04-25T23:38:32;1.00;;;1.00;;
16033;SDS011;8121;51.418;6.998;2023-04-25T23:48:35;2.87;;;0.93;;
16033;SDS011;8121;51.418;6.998;2023-04-25T23:58:36;1.03;;;1.03;;
